Sarnia, Ontario

8:26 AM EST on December 19, 2014 (GMT -0500)
IONFORES2 | Change Station
CLOSE
Current Station
Personal Weather Station
Location: Blue Point, ON
Elevation: 700 ft
Nearby Weather Stations

Elev 700 ft 43.09 °N, 82.16 °W | Updated 2 seconds ago

Overcast
Overcast
29.5 °F
Feels Like 20 °F
N
11.5
Wind Variable Wind from NNW
Gusts 11.5 mph

Today
High -- | Low -- °F
--% Chance of Precip.
Yesterday
High -- | Low -- °F
Precip. -- in
7:56 AM 4:56 PM
Waning Crescent, 8% visible
Pressure 30.25 in
Visibility 10.0 miles
Clouds Overcast 2700 ft
Windchill 20 °F
Dew Point 3 °F
Humidity 32%
Rainfall 0.00 in
Snow Depth Not available.
UV 0 out of 12
Pollen Not available.
Air Quality Not available.
Flu Activity Not available.
METAR KPHN 191317Z AUTO 30007KT 10SM OVC027 M03/M07 A3025 RMK AO2

More Conditions Fewer Conditions

Pressure 30.25 in
Visibility 10.0 miles
Clouds Overcast 2700 ft
Windchill 20 °F
Dew Point 3 °F
Humidity 32%
Rainfall 0.00 in
Snow Depth Not available.
UV 0 out of 12
Pollen Not available.
Air Quality Not available.
Flu Activity Not available.
METAR KPHN 191317Z AUTO 30007KT 10SM OVC027 M03/M07 A3025 RMK AO2

More Conditions Fewer Conditions

10-Day Weather Forecast

Almanac

Astronomy

Dec. 19, 2014 Rise Set
Actual Time
Civil Twilight
Nautical Twilight
Astronomical Twilight
Moon
Length of Visible Light
Length of Day
Tomorrow will be .
, % of the Moon is Illuminated

Today's Extremes

Country Highs Country Lows

Community

WunderPhotos

Upload Photos

1,778,985 photos uploaded!

WunderBlogs® & News

Nearby

Air Quality

  Air Quality AQ Index Pollutant
Not available.

Snow Depth

Station Depth Elevation

Earthquake Activity

City Distance Mag. Time & Date
Minimum magnitude displayed is 2.5.

Coastal Water Temperatures

Place Temperature

Nearby Weather Stations